Time;durP1;ratioP1;P1;durP2;ratioP2;P2;SDS_P1;SDS_P2;PMS_P1;PMS_P2;Temp;Humidity;BMP_temperature;BMP_pressure;BME280_temperature;BME280_humidity;BME280_pressure;Samples;Min_cycle;Max_cycle;Signal;HPM_P1;HPM_P2
2021/07/27 00:01:13;;;;;;;;;22.00;20.67;;;;;;;;4686594;30;46546;-92
2021/07/27 00:03:47;;;;;;;;;25.75;24.75;;;;;;;;4697006;30;45444;-89
2021/07/27 00:06:12;;;;;;;;;23.25;21.75;;;;;;;;4687380;30;47462;-90
2021/07/27 00:08:38;;;;;;;;;22.00;20.25;;;;;;;;4703883;30;45508;-90
2021/07/27 00:11:05;;;;;;;;;27.00;22.75;;;;;;;;4692985;30;45375;-90
2021/07/27 00:18:36;;;;;;;;;25.25;24.50;;;;;;;;4677852;30;47215;-90
2021/07/27 00:21:02;;;;;;;;;23.75;22.75;;;;;;;;5303951;24;45346;-89
2021/07/27 00:23:38;;;;;;;;;26.50;21.00;;;;;;;;4678532;30;45445;-89
2021/07/27 00:26:06;;;;;;;;;25.50;20.75;;;;;;;;4673500;30;45862;-90
2021/07/27 00:28:51;;;;;;;;;22.00;20.50;;;;;;;;4684782;30;45712;-89
2021/07/27 00:31:38;;;;;;;;;20.50;18.00;;;;;;;;4693535;30;46718;-89
2021/07/27 00:34:24;;;;;;;;;22.25;20.00;;;;;;;;4670857;30;45340;-89
2021/07/27 00:36:49;;;;;;;;;24.50;20.25;;;;;;;;4681811;30;46477;-88
2021/07/27 00:39:14;;;;;;;;;20.75;19.75;;;;;;;;4683045;30;45484;-89
2021/07/27 00:41:39;;;;;;;;;19.00;18.50;;;;;;;;4671580;30;45576;-89
2021/07/27 00:44:05;;;;;;;;;22.33;18.33;;;;;;;;4682432;30;45455;-89
2021/07/27 00:46:30;;;;;;;;;20.50;17.50;;;;;;;;4670447;30;46867;-88
2021/07/27 00:48:55;;;;;;;;;22.50;20.25;;;;;;;;4695550;30;45372;-91
2021/07/27 00:51:21;;;;;;;;;15.75;15.75;;;;;;;;4696226;30;45695;-89
2021/07/27 00:53:46;;;;;;;;;19.75;18.00;;;;;;;;4673065;30;45370;-90
2021/07/27 00:56:11;;;;;;;;;22.25;18.50;;;;;;;;4682081;30;46147;-89
2021/07/27 00:58:37;;;;;;;;;25.00;19.00;;;;;;;;4679574;30;46036;-89
2021/07/27 01:01:03;;;;;;;;;17.50;17.00;;;;;;;;4663166;30;45595;-90
2021/07/27 01:03:28;;;;;;;;;20.00;20.00;;;;;;;;4682680;30;45545;-88
2021/07/27 01:05:53;;;;;;;;;17.67;15.00;;;;;;;;4667622;30;47568;-90
2021/07/27 01:08:19;;;;;;;;;20.00;16.33;;;;;;;;4873498;24;45788;-89
2021/07/27 01:10:45;;;;;;;;;23.25;20.25;;;;;;;;4672652;30;45502;-91
2021/07/27 01:13:10;;;;;;;;;24.00;16.50;;;;;;;;4689109;30;45509;-90
2021/07/27 01:15:35;;;;;;;;;22.50;18.75;;;;;;;;4710856;24;46385;-89
2021/07/27 01:18:05;;;;;;;;;24.67;23.67;;;;;;;;4723718;30;44810;-89
2021/07/27 01:20:57;;;;;;;;;21.75;19.75;;;;;;;;4685305;30;45450;-89
2021/07/27 01:39:47;;;;;;;;;27.75;24.50;;;;;;;;4698350;30;45689;-90
2021/07/27 01:42:13;;;;;;;;;26.00;19.00;;;;;;;;4684357;30;45673;-90
2021/07/27 01:44:45;;;;;;;;;21.00;20.50;;;;;;;;4680626;30;45508;-90
2021/07/27 01:49:46;;;;;;;;;27.00;22.00;;;;;;;;3075843;24;45930;-89
2021/07/27 01:52:15;;;;;;;;;25.00;20.50;;;;;;;;4698407;30;45622;-89
2021/07/27 01:54:41;;;;;;;;;23.25;19.25;;;;;;;;4682333;30;45570;-90
2021/07/27 01:57:09;;;;;;;;;20.75;18.75;;;;;;;;4683922;30;47222;-91
2021/07/27 01:59:36;;;;;;;;;21.50;19.00;;;;;;;;4683161;30;45766;-89
2021/07/27 02:02:02;;;;;;;;;21.00;17.00;;;;;;;;4695654;30;45246;-88
2021/07/27 02:04:27;;;;;;;;;21.25;21.25;;;;;;;;4701462;30;45692;-90
2021/07/27 02:06:52;;;;;;;;;21.00;19.00;;;;;;;;4693362;30;45479;-90
2021/07/27 02:09:18;;;;;;;;;23.00;19.00;;;;;;;;4698337;30;45527;-89
2021/07/27 02:11:48;;;;;;;;;23.25;19.50;;;;;;;;4682935;30;46039;-89
2021/07/27 02:14:17;;;;;;;;;20.50;17.25;;;;;;;;4686241;30;45524;-90
2021/07/27 02:16:42;;;;;;;;;23.00;22.25;;;;;;;;4676908;30;47268;-90
2021/07/27 02:19:07;;;;;;;;;22.33;19.67;;;;;;;;4713611;30;45336;-91
2021/07/27 02:21:33;;;;;;;;;20.25;18.00;;;;;;;;4741112;24;44838;-89
2021/07/27 02:23:59;;;;;;;;;24.50;19.75;;;;;;;;4685625;30;45350;-89
2021/07/27 02:26:24;;;;;;;;;19.25;17.50;;;;;;;;4783529;24;45391;-92
2021/07/27 02:28:50;;;;;;;;;20.25;17.00;;;;;;;;4875408;24;46997;-90
2021/07/27 02:31:24;;;;;;;;;19.75;17.50;;;;;;;;4693724;30;45531;-88
2021/07/27 02:33:49;;;;;;;;;16.50;15.00;;;;;;;;4707306;24;46348;-89
2021/07/27 02:36:14;;;;;;;;;19.25;17.25;;;;;;;;4686539;30;47430;-90
2021/07/27 02:38:40;;;;;;;;;24.33;21.00;;;;;;;;4690051;30;45543;-89
2021/07/27 02:41:12;;;;;;;;;18.75;15.50;;;;;;;;4683961;30;45644;-88
2021/07/27 02:43:42;;;;;;;;;15.50;15.50;;;;;;;;4704278;30;45535;-89
2021/07/27 02:48:44;;;;;;;;;19.75;18.00;;;;;;;;5533741;24;46331;-90
2021/07/27 02:51:11;;;;;;;;;18.00;15.50;;;;;;;;4680090;30;45526;-91
2021/07/27 02:53:36;;;;;;;;;20.75;16.00;;;;;;;;4680603;30;45502;-90
2021/07/27 02:56:02;;;;;;;;;20.33;18.00;;;;;;;;4667982;30;48083;-89
2021/07/27 02:58:31;;;;;;;;;18.25;16.00;;;;;;;;4682394;30;45942;-90
2021/07/27 03:00:57;;;;;;;;;25.25;20.00;;;;;;;;4680340;30;45401;-90
2021/07/27 03:06:02;;;;;;;;;21.50;15.50;;;;;;;;4699879;24;45607;-90
2021/07/27 03:11:12;;;;;;;;;19.00;16.75;;;;;;;;5315372;24;46083;-89
2021/07/27 03:13:37;;;;;;;;;17.50;17.50;;;;;;;;4707042;30;45560;-89
2021/07/27 03:16:03;;;;;;;;;16.50;16.50;;;;;;;;4704818;30;46138;-88
2021/07/27 03:18:28;;;;;;;;;18.00;18.00;;;;;;;;4708333;30;45318;-91
2021/07/27 03:26:03;;;;;;;;;18.25;17.00;;;;;;;;5029394;24;45763;-89
2021/07/27 03:39:38;;;;;;;;;20.00;15.00;;;;;;;;5468555;24;45824;-89
2021/07/27 03:42:08;;;;;;;;;20.25;16.50;;;;;;;;4919046;24;45883;-89
2021/07/27 03:44:33;;;;;;;;;19.75;17.00;;;;;;;;4667661;30;45299;-89
2021/07/27 03:47:04;;;;;;;;;16.00;14.00;;;;;;;;4664885;30;46935;-91
2021/07/27 03:49:30;;;;;;;;;15.50;14.25;;;;;;;;4669831;30;45337;-90
2021/07/27 03:51:56;;;;;;;;;14.75;14.75;;;;;;;;4687690;30;45363;-90
2021/07/27 03:54:22;;;;;;;;;16.25;15.00;;;;;;;;4663065;30;45397;-89
2021/07/27 03:56:47;;;;;;;;;16.00;16.00;;;;;;;;4674623;30;45803;-90
2021/07/27 03:59:14;;;;;;;;;19.00;15.25;;;;;;;;4789679;24;45814;-90
2021/07/27 04:01:40;;;;;;;;;16.25;14.25;;;;;;;;4696320;30;45493;-89
2021/07/27 04:04:11;;;;;;;;;19.75;17.25;;;;;;;;4699159;30;45367;-89
2021/07/27 04:06:37;;;;;;;;;19.25;16.00;;;;;;;;4679141;30;47585;-89
2021/07/27 04:09:02;;;;;;;;;20.25;14.50;;;;;;;;4692945;30;45577;-92
2021/07/27 04:11:28;;;;;;;;;21.25;14.25;;;;;;;;4687902;30;45474;-91
2021/07/27 04:14:22;;;;;;;;;17.00;15.00;;;;;;;;4830519;24;45948;-89
2021/07/27 04:16:47;;;;;;;;;18.00;13.50;;;;;;;;4753975;24;45668;-91
2021/07/27 04:19:12;;;;;;;;;14.25;14.00;;;;;;;;4679325;30;45568;-89
2021/07/27 04:21:41;;;;;;;;;18.00;15.25;;;;;;;;4684596;30;45419;-90
2021/07/27 04:24:18;;;;;;;;;15.50;14.00;;;;;;;;4668393;30;45235;-94
2021/07/27 04:26:54;;;;;;;;;14.75;14.00;;;;;;;;4673818;30;47250;-93
2021/07/27 04:29:44;;;;;;;;;17.50;14.75;;;;;;;;4680194;30;45292;-91
2021/07/27 04:32:09;;;;;;;;;16.50;15.50;;;;;;;;4639093;30;45445;-94
2021/07/27 04:34:34;;;;;;;;;16.00;14.50;;;;;;;;4669711;30;45467;-91
2021/07/27 05:06:33;;;;;;;;;20.00;17.75;;;;;;;;4952330;24;47021;-90
2021/07/27 05:08:58;;;;;;;;;19.50;15.75;;;;;;;;4670272;30;47226;-90
2021/07/27 05:11:25;;;;;;;;;15.00;15.00;;;;;;;;4687942;30;45470;-92
2021/07/27 05:13:55;;;;;;;;;18.75;16.75;;;;;;;;4665362;30;45808;-93
2021/07/27 05:16:21;;;;;;;;;22.00;18.00;;;;;;;;4690180;30;45604;-90
2021/07/27 05:18:48;;;;;;;;;20.50;16.50;;;;;;;;4668217;30;47109;-91
2021/07/27 05:21:15;;;;;;;;;16.75;15.00;;;;;;;;4670048;30;45791;-92
2021/07/27 05:23:41;;;;;;;;;19.75;15.25;;;;;;;;4659744;30;44847;-91
2021/07/27 06:27:50;;;;;;;;;18.25;12.00;;;;;;;;5091966;24;46349;-91
2021/07/27 06:41:08;;;;;;;;;18.50;17.25;;;;;;;;5287731;24;45837;-91
2021/07/27 06:56:29;;;;;;;;;20.75;16.75;;;;;;;;5289401;24;45858;-92
2021/07/27 07:12:07;;;;;;;;;18.75;17.00;;;;;;;;4559383;24;45679;-91
2021/07/27 07:56:27;;;;;;;;;21.25;16.50;;;;;;;;4606579;30;46183;-83
2021/07/27 07:59:21;;;;;;;;;18.00;16.00;;;;;;;;4593079;30;45561;-83
2021/07/27 08:01:55;;;;;;;;;15.50;14.75;;;;;;;;4609972;30;45588;-84
2021/07/27 08:22:43;;;;;;;;;14.00;11.75;;;;;;;;4573960;30;45473;-84
2021/07/27 08:25:15;;;;;;;;;19.00;14.00;;;;;;;;4552718;30;46104;-83
2021/07/27 08:27:40;;;;;;;;;13.50;13.50;;;;;;;;4559224;30;45639;-83
2021/07/27 08:30:08;;;;;;;;;17.75;15.25;;;;;;;;4541864;30;46990;-83
2021/07/27 08:32:34;;;;;;;;;17.75;14.50;;;;;;;;4553696;30;45673;-83
2021/07/27 08:34:59;;;;;;;;;16.75;13.75;;;;;;;;4577287;30;46010;-85
2021/07/27 08:40:48;;;;;;;;;19.25;15.00;;;;;;;;4513275;31;45637;-82
2021/07/27 09:40:32;;;;;;;;;17.50;15.75;;;;;;;;5218911;24;46192;-92
2021/07/27 09:42:59;;;;;;;;;18.75;17.25;;;;;;;;4693819;30;45862;-93
2021/07/27 09:54:47;;;;;;;;;18.50;16.25;;;;;;;;4645968;30;46541;-81
2021/07/27 09:57:44;;;;;;;;;19.50;15.75;;;;;;;;4649807;30;45647;-81
2021/07/27 10:24:50;;;;;;;;;22.00;18.00;;;;;;;;4677171;30;44982;-92
2021/07/27 10:27:49;;;;;;;;;;;;;;;;;;;;;
2021/07/27 10:30:52;;;;;;;;;18.50;16.25;;;;;;;;4611679;30;71763;-92
2021/07/27 10:33:51;;;;;;;;;15.75;14.50;;;;;;;;4549313;31;46243;-91
2021/07/27 10:36:47;;;;;;;;;19.00;14.75;;;;;;;;4548106;31;46156;-92
2021/07/27 12:12:13;;;;;;;;;12.00;10.75;;;;;;;;3738885;24;46456;-91
2021/07/27 12:15:04;;;;;;;;;14.25;12.00;;;;;;;;4674735;30;45600;-92
2021/07/27 12:17:29;;;;;;;;;11.00;9.50;;;;;;;;4678070;30;45538;-93
2021/07/27 12:20:10;;;;;;;;;14.25;12.50;;;;;;;;4676972;30;45513;-92
2021/07/27 12:30:20;;;;;;;;;13.75;13.25;;;;;;;;4717809;29;45422;-92
2021/07/27 14:10:12;;;;;;;;;;;;;;;;;;;;;
2021/07/27 14:12:51;;;;;;;;;15.50;14.00;;;;;;;;4623224;30;66555;-93
2021/07/27 14:15:41;;;;;;;;;16.75;13.00;;;;;;;;4624944;30;45673;-93
2021/07/27 14:18:12;;;;;;;;;14.50;14.00;;;;;;;;4626997;30;48323;-92
2021/07/27 14:21:00;;;;;;;;;11.50;9.75;;;;;;;;4644074;30;45538;-91
2021/07/27 14:23:53;;;;;;;;;15.75;13.25;;;;;;;;4611636;30;45521;-94
2021/07/27 14:26:24;;;;;;;;;15.00;13.25;;;;;;;;4576064;31;45790;-95
2021/07/27 14:28:49;;;;;;;;;18.25;13.25;;;;;;;;4578619;31;45430;-93
2021/07/27 14:43:11;;;;;;;;;17.00;14.75;;;;;;;;4623186;30;45921;-93
2021/07/27 14:46:11;;;;;;;;;18.00;13.75;;;;;;;;4612686;30;45568;-92
2021/07/27 16:25:52;;;;;;;;;10.25;10.00;;;;;;;;3731130;24;46512;-90
2021/07/27 16:28:18;;;;;;;;;10.25;10.00;;;;;;;;4680981;30;47453;-91
2021/07/27 16:30:43;;;;;;;;;10.25;8.25;;;;;;;;4685931;30;45369;-94
2021/07/27 16:33:13;;;;;;;;;9.75;9.50;;;;;;;;4682901;30;45893;-91
2021/07/27 17:56:18;;;;;;;;;14.25;10.75;;;;;;;;4656811;30;45463;-93
2021/07/27 17:58:43;;;;;;;;;11.50;9.75;;;;;;;;4651772;30;45331;-93
2021/07/27 18:01:15;;;;;;;;;10.00;9.75;;;;;;;;4661893;30;45542;-92
2021/07/27 18:03:54;;;;;;;;;11.25;10.50;;;;;;;;4666491;30;45933;-95
2021/07/27 18:06:25;;;;;;;;;14.75;10.75;;;;;;;;4646765;30;44869;-95
2021/07/27 18:09:00;;;;;;;;;12.75;10.00;;;;;;;;4651446;30;45566;-95
2021/07/27 18:11:30;;;;;;;;;11.00;9.00;;;;;;;;4653191;30;45491;-93
2021/07/27 18:14:10;;;;;;;;;13.25;11.75;;;;;;;;4663580;30;46996;-93
2021/07/27 18:16:51;;;;;;;;;11.25;9.75;;;;;;;;4663137;30;45777;-94
2021/07/27 18:19:30;;;;;;;;;14.00;12.50;;;;;;;;4666599;30;45476;-95
2021/07/27 18:25:01;;;;;;;;;16.25;12.00;;;;;;;;4660028;30;46946;-92
2021/07/27 18:27:29;;;;;;;;;11.50;10.00;;;;;;;;4648044;30;45590;-93
2021/07/27 19:06:04;;;;;;;;;10.00;9.00;;;;;;;;4687969;30;46048;-91
2021/07/27 19:08:34;;;;;;;;;9.00;8.25;;;;;;;;4693177;30;45367;-91
2021/07/27 19:11:02;;;;;;;;;14.00;11.00;;;;;;;;4677982;30;45519;-91
2021/07/27 19:13:30;;;;;;;;;9.75;9.00;;;;;;;;4690694;30;45494;-90
2021/07/27 19:15:59;;;;;;;;;11.25;9.00;;;;;;;;4794494;24;45990;-91
2021/07/27 19:18:24;;;;;;;;;12.50;10.00;;;;;;;;4654018;30;45694;-90
2021/07/27 19:20:54;;;;;;;;;14.00;10.00;;;;;;;;4847108;24;45163;-90
2021/07/27 19:23:23;;;;;;;;;10.75;10.75;;;;;;;;4678198;30;45535;-91
2021/07/27 19:25:50;;;;;;;;;12.00;11.25;;;;;;;;4679824;30;47128;-91
2021/07/27 19:28:28;;;;;;;;;13.00;11.50;;;;;;;;4693021;24;45325;-91
2021/07/27 19:30:54;;;;;;;;;10.50;9.25;;;;;;;;4683252;30;45466;-92
2021/07/27 19:33:22;;;;;;;;;9.00;9.00;;;;;;;;4665341;30;45559;-92
2021/07/27 19:35:58;;;;;;;;;;;;;;;;;;;;;
2021/07/27 19:38:32;;;;;;;;;11.00;9.00;;;;;;;;4715399;24;72568;-91
2021/07/27 19:41:02;;;;;;;;;14.00;12.00;;;;;;;;4681461;30;45607;-92
2021/07/27 19:43:55;;;;;;;;;10.50;10.00;;;;;;;;4696544;30;45705;-91
2021/07/27 19:49:45;;;;;;;;;12.00;10.00;;;;;;;;5111997;24;46139;-91
2021/07/27 19:51:50;;;;;;;;;14.75;11.25;;;;;;;;4690925;30;45655;-89
2021/07/27 19:54:18;;;;;;;;;11.00;11.00;;;;;;;;4692077;30;45656;-90
2021/07/27 19:59:26;;;;;;;;;12.25;10.25;;;;;;;;5350557;24;45795;-83
2021/07/27 20:02:09;;;;;;;;;14.50;13.25;;;;;;;;4673088;30;45635;-82
2021/07/27 20:36:58;;;;;;;;;14.00;11.25;;;;;;;;4952997;24;45508;-93
2021/07/27 20:39:53;;;;;;;;;16.00;13.75;;;;;;;;4662919;30;46856;-93
2021/07/27 20:42:19;;;;;;;;;16.75;14.75;;;;;;;;4670939;30;46116;-92
2021/07/27 20:44:47;;;;;;;;;12.50;11.00;;;;;;;;4665525;30;45496;-93
2021/07/27 20:47:12;;;;;;;;;15.00;12.00;;;;;;;;4663332;30;45483;-92
2021/07/27 20:50:04;;;;;;;;;13.75;12.25;;;;;;;;4679529;30;45605;-93
2021/07/27 20:52:35;;;;;;;;;16.00;13.75;;;;;;;;4663602;30;45493;-94
2021/07/27 20:55:24;;;;;;;;;12.25;10.00;;;;;;;;4679748;30;45564;-93
2021/07/27 20:57:54;;;;;;;;;12.75;12.75;;;;;;;;4681910;30;45451;-94
2021/07/27 21:00:22;;;;;;;;;12.00;12.00;;;;;;;;4674640;30;47464;-93
2021/07/27 21:02:48;;;;;;;;;13.00;12.75;;;;;;;;4669589;30;45771;-91
2021/07/27 21:05:13;;;;;;;;;19.50;13.50;;;;;;;;4668327;30;45444;-93
2021/07/27 21:07:42;;;;;;;;;14.50;12.50;;;;;;;;4661686;30;45911;-94
2021/07/27 21:10:07;;;;;;;;;15.50;12.75;;;;;;;;4667888;30;46841;-91
2021/07/27 21:12:35;;;;;;;;;15.25;13.75;;;;;;;;4679250;30;45406;-92
2021/07/27 21:15:00;;;;;;;;;14.75;13.25;;;;;;;;4666847;30;45674;-91
2021/07/27 21:17:31;;;;;;;;;11.75;10.75;;;;;;;;4679199;30;45614;-92
2021/07/27 21:19:57;;;;;;;;;16.75;14.25;;;;;;;;4664156;30;46773;-92
2021/07/27 21:22:25;;;;;;;;;15.25;15.00;;;;;;;;4681088;30;45563;-92
2021/07/27 21:24:54;;;;;;;;;15.50;13.00;;;;;;;;4666802;30;46686;-92
2021/07/27 21:27:19;;;;;;;;;13.00;11.75;;;;;;;;4676824;30;45586;-92
2021/07/27 21:29:47;;;;;;;;;14.25;13.00;;;;;;;;4665716;30;47179;-92
2021/07/27 21:32:33;;;;;;;;;13.50;13.50;;;;;;;;4680237;30;45346;-92
2021/07/27 21:35:26;;;;;;;;;18.75;15.00;;;;;;;;4704181;24;45631;31
2021/07/27 21:38:00;;;;;;;;;12.50;12.00;;;;;;;;4632714;30;45765;-92
2021/07/27 21:40:25;;;;;;;;;18.50;12.00;;;;;;;;4612408;30;47547;-93
2021/07/27 21:43:11;;;;;;;;;15.50;12.50;;;;;;;;4624884;30;45379;-93
2021/07/27 21:45:47;;;;;;;;;12.50;12.00;;;;;;;;4612436;30;45406;-92
2021/07/27 22:06:44;;;;;;;;;18.00;15.25;;;;;;;;4740459;24;45646;-92
2021/07/27 22:43:11;;;;;;;;;15.50;11.75;;;;;;;;5407048;24;45922;-91
2021/07/27 22:45:36;;;;;;;;;14.50;13.00;;;;;;;;4693461;30;45532;-91
2021/07/27 22:48:04;;;;;;;;;20.00;13.33;;;;;;;;4675317;30;45657;-91
2021/07/27 22:50:58;;;;;;;;;16.50;12.50;;;;;;;;4678401;30;45538;-91
2021/07/27 22:53:42;;;;;;;;;;;;;;;;;;;;;
2021/07/27 22:56:10;;;;;;;;;17.00;15.25;;;;;;;;4691925;30;74810;-92
2021/07/27 23:50:52;;;;;;;;;13.00;12.00;;;;;;;;5074084;24;46200;-91
2021/07/27 23:53:18;;;;;;;;;13.25;12.50;;;;;;;;4691164;30;45419;-91
2021/07/27 23:58:42;;;;;;;;;17.00;14.00;;;;;;;;4699358;30;45562;-91
